createdAt,value
2023-05-07T00:00:27.639Z,98083.03
2023-05-07T00:03:30.657Z,98087.31
2023-05-07T00:06:34.540Z,98088.06
2023-05-07T00:09:38.887Z,98080.41
2023-05-07T00:12:42.750Z,98089.75
2023-05-07T00:15:45.539Z,98087.53
2023-05-07T00:18:48.188Z,98090.44
2023-05-07T00:21:50.903Z,98094.22
2023-05-07T00:24:55.523Z,98081.63
2023-05-07T00:27:58.533Z,98080.53
2023-05-07T00:31:01.276Z,98079.44
2023-05-07T00:34:03.998Z,98080.72
2023-05-07T00:37:08.322Z,98079.53
2023-05-07T00:40:13.100Z,98077.72
2023-05-07T00:43:16.109Z,98076.63
2023-05-07T00:46:19.094Z,98069.25
2023-05-07T00:49:22.287Z,98066.66
2023-05-07T00:52:28.362Z,98060.97
2023-05-07T00:55:32.682Z,98071.75
2023-05-07T00:58:35.529Z,98065.03
2023-05-07T01:01:38.574Z,98064.84
2023-05-07T01:04:41.520Z,98059.25
2023-05-07T01:07:45.406Z,98056.88
2023-05-07T01:10:49.543Z,98068.75
2023-05-07T01:13:53.284Z,98062.94
2023-05-07T01:16:56.166Z,98059.44
2023-05-07T01:19:58.941Z,98061.94
2023-05-07T01:23:05.122Z,98067.91
2023-05-07T01:26:07.788Z,98062.31
2023-05-07T01:29:10.865Z,98063.44
2023-05-07T01:32:15.721Z,98061.03
2023-05-07T01:35:21.777Z,98061.81
2023-05-07T01:38:26.142Z,98062.94
2023-05-07T01:41:29.153Z,98067.13
2023-05-07T01:44:32.072Z,98059.81
2023-05-07T01:47:35.599Z,98062.81
2023-05-07T01:50:39.255Z,98061.91
2023-05-07T01:53:44.865Z,98060.03
2023-05-07T01:56:49.085Z,98052.72
2023-05-07T01:59:51.830Z,98054.22
2023-05-07T02:02:54.827Z,98066.31
2023-05-07T02:05:57.675Z,98059.72
2023-05-07T02:09:01.723Z,98054.03
2023-05-07T02:12:04.883Z,98059.13
2023-05-07T02:15:08.616Z,98058.63
2023-05-07T02:18:11.311Z,98054.63
2023-05-07T02:21:13.986Z,98053.63
2023-05-07T02:24:18.084Z,98066.31
2023-05-07T02:27:22.850Z,98062.00
2023-05-07T02:30:26.174Z,98066.00
2023-05-07T02:33:28.876Z,98065.31
2023-05-07T02:36:31.634Z,98052.19
2023-05-07T02:39:35.945Z,98063.00
2023-05-07T02:42:38.661Z,98067.59
2023-05-07T02:45:41.417Z,98062.78
2023-05-07T02:48:44.083Z,98064.47
2023-05-07T02:51:46.743Z,98059.19
2023-05-07T02:54:50.808Z,98065.25
2023-05-07T02:57:53.492Z,98059.47
2023-05-07T03:00:56.742Z,98054.94
2023-05-07T03:03:59.628Z,98049.88
2023-05-07T03:07:02.316Z,98046.72
2023-05-07T03:10:07.297Z,98044.03
2023-05-07T03:13:10.228Z,98040.44
2023-05-07T03:16:13.267Z,98032.34
2023-05-07T03:19:16.084Z,98035.34
2023-05-07T03:22:18.841Z,98038.41
2023-05-07T03:25:23.105Z,98035.50
2023-05-07T03:28:25.893Z,98040.19
2023-05-07T03:31:28.756Z,98037.59
2023-05-07T03:34:31.499Z,98039.53
2023-05-07T03:37:34.193Z,98034.44
2023-05-07T03:40:38.300Z,98044.19
2023-05-07T03:43:41.054Z,98046.38
2023-05-07T03:46:43.945Z,98043.19
2023-05-07T03:49:46.655Z,98044.78
2023-05-07T03:52:51.582Z,98049.88
2023-05-07T03:55:55.765Z,98047.19
2023-05-07T03:58:58.614Z,98045.34
2023-05-07T04:02:03.701Z,98046.72
2023-05-07T04:05:08.899Z,98050.81
2023-05-07T04:08:11.622Z,98051.31
2023-05-07T04:11:15.722Z,98055.97
2023-05-07T04:14:18.425Z,98052.97
2023-05-07T04:17:21.130Z,98061.66
2023-05-07T04:20:23.914Z,98057.84
2023-05-07T04:23:26.631Z,98058.97
2023-05-07T04:26:31.127Z,98067.59
2023-05-07T04:29:33.874Z,98068.31
2023-05-07T04:32:37.505Z,98070.69
2023-05-07T04:35:40.281Z,98063.94
2023-05-07T04:38:43.373Z,98063.03
2023-05-07T04:41:47.501Z,98075.44
2023-05-07T04:44:54.956Z,98074.31
2023-05-07T04:47:57.801Z,98069.94
2023-05-07T04:51:00.697Z,98077.38
2023-05-07T04:54:03.510Z,98088.44
2023-05-07T04:57:07.768Z,98080.94
2023-05-07T05:00:11.370Z,98085.25
2023-05-07T05:03:14.539Z,98081.38
2023-05-07T05:06:17.380Z,98081.28
2023-05-07T05:09:20.141Z,98083.69
2023-05-07T05:12:24.207Z,98085.50
2023-05-07T05:15:26.850Z,98088.41
2023-05-07T05:18:29.544Z,98094.81
2023-05-07T05:21:34.183Z,98099.34
2023-05-07T05:24:36.858Z,98101.44
2023-05-07T05:27:44.426Z,98101.44
2023-05-07T05:30:49.953Z,98092.97
2023-05-07T05:33:52.595Z,98097.91
2023-05-07T05:36:55.357Z,98100.13
2023-05-07T05:39:58.013Z,98104.75
2023-05-07T05:43:02.229Z,98109.34
2023-05-07T05:46:05.420Z,98109.38
2023-05-07T05:49:08.306Z,98119.13
2023-05-07T05:52:11.683Z,98106.44
2023-05-07T05:55:14.432Z,98103.81
2023-05-07T05:58:18.500Z,98104.13
2023-05-07T06:01:21.416Z,98109.50
2023-05-07T06:04:24.129Z,98109.16
2023-05-07T06:07:27.135Z,98114.84
2023-05-07T06:10:31.166Z,98118.09
2023-05-07T06:13:35.190Z,98120.88
2023-05-07T06:16:39.107Z,98109.94
2023-05-07T06:19:41.876Z,98121.53
2023-05-07T06:22:44.541Z,98120.63
2023-05-07T06:25:50.912Z,98122.16
2023-05-07T06:28:55.201Z,98120.56
2023-05-07T06:31:58.117Z,98136.59
2023-05-07T06:35:00.952Z,98133.00
2023-05-07T06:38:03.838Z,98122.06
2023-05-07T06:41:08.029Z,98128.22
2023-05-07T06:44:12.149Z,98130.34
2023-05-07T06:47:16.334Z,98119.09
2023-05-07T06:50:19.347Z,98117.72
2023-05-07T06:53:22.057Z,98111.69
2023-05-07T06:56:25.433Z,98113.25
2023-05-07T06:59:29.637Z,98115.78
2023-05-07T07:02:32.569Z,98116.34
2023-05-07T07:05:35.582Z,98117.69
2023-05-07T07:08:39.755Z,98112.81
2023-05-07T07:11:42.709Z,98105.59
2023-05-07T07:14:46.897Z,98106.59
2023-05-07T07:17:50.742Z,98101.25
2023-05-07T07:20:53.491Z,98107.28
2023-05-07T07:23:56.376Z,98093.75
2023-05-07T07:26:59.062Z,98103.97
2023-05-07T07:30:03.223Z,98109.16
2023-05-07T07:33:06.390Z,98102.94
2023-05-07T07:36:09.596Z,98106.81
2023-05-07T07:39:12.299Z,98109.06
2023-05-07T07:42:15.180Z,98106.56
2023-05-07T07:45:19.492Z,98109.84
2023-05-07T07:48:22.346Z,98114.09
2023-05-07T07:51:25.064Z,98109.53
2023-05-07T07:54:27.796Z,98125.31
2023-05-07T07:57:30.589Z,98116.41
2023-05-07T08:00:34.730Z,98116.00
2023-05-07T08:03:40.101Z,98104.78
2023-05-07T08:06:43.176Z,98111.31
2023-05-07T08:09:45.967Z,98112.75
2023-05-07T08:12:49.352Z,98115.22
2023-05-07T08:15:53.467Z,98121.25
2023-05-07T08:18:56.201Z,98121.03
2023-05-07T08:22:01.227Z,98120.41
2023-05-07T08:25:04.290Z,98112.66
2023-05-07T08:28:09.678Z,98112.47
2023-05-07T08:31:14.100Z,98120.44
2023-05-07T08:34:17.001Z,98112.72
2023-05-07T08:37:19.805Z,98107.44
2023-05-07T08:40:26.903Z,98117.94
2023-05-07T08:43:29.911Z,98115.22
2023-05-07T08:46:34.446Z,98111.16
2023-05-07T08:49:37.271Z,98111.78
2023-05-07T08:52:41.556Z,98120.81
2023-05-07T08:55:44.345Z,98111.28
2023-05-07T08:58:47.118Z,98112.38
2023-05-07T09:01:51.450Z,98112.78
2023-05-07T09:04:54.513Z,98113.25
2023-05-07T09:07:58.415Z,98109.19
2023-05-07T09:11:01.399Z,98110.22
2023-05-07T09:14:04.883Z,98099.63
2023-05-07T09:17:09.107Z,98100.09
2023-05-07T09:20:12.250Z,98094.78
2023-05-07T09:23:16.122Z,98090.91
2023-05-07T09:26:18.937Z,98086.38
2023-05-07T09:29:21.770Z,98082.56
2023-05-07T09:32:28.286Z,98078.56
2023-05-07T09:35:32.240Z,98070.84
2023-05-07T09:38:35.871Z,98071.03
2023-05-07T09:41:46.194Z,98075.19
2023-05-07T09:44:49.253Z,98077.69
2023-05-07T09:47:57.026Z,98069.38
2023-05-07T09:51:04.615Z,98068.78
2023-05-07T09:54:09.804Z,98071.09
2023-05-07T09:57:13.733Z,98074.38
2023-05-07T10:00:17.385Z,98075.78
2023-05-07T10:03:22.175Z,98077.19
2023-05-07T10:06:27.332Z,98071.63
2023-05-07T10:09:31.244Z,98058.81
2023-05-07T10:12:39.763Z,98058.13
2023-05-07T10:15:43.297Z,98052.31
2023-05-07T10:18:49.448Z,98048.97
2023-05-07T10:21:57.797Z,98050.84
2023-05-07T10:25:05.403Z,98041.44
2023-05-07T10:28:13.132Z,98042.38
2023-05-07T10:31:33.118Z,98035.97
2023-05-07T10:34:41.074Z,98034.69
2023-05-07T10:37:44.111Z,98038.06
2023-05-07T10:40:47.798Z,98043.09
2023-05-07T10:43:50.965Z,98037.44
2023-05-07T10:47:09.774Z,98034.91
2023-05-07T10:50:26.492Z,98042.63
2023-05-07T10:53:29.774Z,98037.59
2023-05-07T10:56:32.745Z,98039.03
2023-05-07T10:59:45.798Z,98037.31
2023-05-07T11:03:09.669Z,98033.44
2023-05-07T11:06:15.712Z,98038.84
2023-05-07T11:09:18.601Z,98041.31
2023-05-07T11:12:49.221Z,98035.53
2023-05-07T11:15:53.090Z,98031.78
2023-05-07T11:18:57.963Z,98030.47
2023-05-07T11:22:02.114Z,98031.44
2023-05-07T11:25:06.801Z,98030.50
2023-05-07T11:28:11.404Z,98024.09
2023-05-07T11:31:14.314Z,98023.22
2023-05-07T11:34:22.618Z,98025.06
2023-05-07T11:37:30.554Z,98023.50
2023-05-07T11:40:33.339Z,98021.78
2023-05-07T11:43:37.601Z,98014.38
2023-05-07T11:46:45.555Z,98017.03
2023-05-07T11:49:49.641Z,98025.06
2023-05-07T11:52:54.183Z,98017.06
2023-05-07T11:55:58.316Z,98028.16
2023-05-07T11:59:01.051Z,98029.22
2023-05-07T12:02:04.050Z,98040.41
2023-05-07T12:05:07.253Z,98040.03
2023-05-07T12:08:16.614Z,98043.31
2023-05-07T12:11:26.906Z,98040.81
2023-05-07T12:14:30.135Z,98042.94
2023-05-07T12:17:33.074Z,98038.84
2023-05-07T12:20:36.346Z,98044.13
2023-05-07T12:23:40.904Z,98045.16
2023-05-07T12:26:43.687Z,98043.31
2023-05-07T12:29:47.364Z,98042.06
2023-05-07T12:32:54.729Z,98049.72
2023-05-07T12:35:58.313Z,98049.16
2023-05-07T12:39:03.044Z,98062.94
2023-05-07T12:42:05.841Z,98079.25
2023-05-07T12:45:12.472Z,98082.41
2023-05-07T12:48:15.516Z,98090.69
2023-05-07T12:51:20.631Z,98103.41
2023-05-07T12:54:42.614Z,98098.94
2023-05-07T12:57:48.014Z,98103.03
2023-05-07T13:00:52.147Z,98108.59
2023-05-07T13:03:54.993Z,98114.22
2023-05-07T13:06:57.791Z,98106.66
2023-05-07T13:10:01.896Z,98101.56
2023-05-07T13:13:05.445Z,98104.69
2023-05-07T13:16:10.742Z,98102.84
2023-05-07T13:19:13.546Z,98108.00
2023-05-07T13:22:16.299Z,98108.38
2023-05-07T13:25:20.352Z,98122.16
2023-05-07T13:28:23.453Z,98132.47
2023-05-07T13:31:26.426Z,98136.75
2023-05-07T13:34:30.548Z,98134.41
2023-05-07T13:37:33.273Z,98123.59
2023-05-07T13:40:37.439Z,98124.88
2023-05-07T13:43:41.011Z,98113.75
2023-05-07T13:46:43.817Z,98103.50
2023-05-07T13:49:46.511Z,98101.00
2023-05-07T13:52:51.859Z,98094.75
2023-05-07T13:55:56.037Z,98091.72
2023-05-07T13:59:00.787Z,98092.53
2023-05-07T14:02:03.918Z,98093.81
2023-05-07T14:05:07.493Z,98096.38
2023-05-07T14:08:10.367Z,98120.16
2023-05-07T14:11:14.378Z,98136.88
2023-05-07T14:14:17.174Z,98156.66
2023-05-07T14:17:21.063Z,98162.56
2023-05-07T14:20:23.998Z,98165.91
2023-05-07T14:23:28.153Z,98163.19
2023-05-07T14:26:32.309Z,98157.16
2023-05-07T14:29:36.428Z,98154.75
2023-05-07T14:32:39.349Z,98157.16
2023-05-07T14:35:42.207Z,98163.06
2023-05-07T14:38:45.109Z,98152.81
2023-05-07T14:41:49.299Z,98153.63
2023-05-07T14:44:52.058Z,98153.63
2023-05-07T14:47:54.939Z,98139.44
2023-05-07T14:50:58.024Z,98126.34
2023-05-07T14:54:01.325Z,98135.44
2023-05-07T14:57:07.118Z,98134.97
2023-05-07T15:00:12.300Z,98128.13
2023-05-07T15:03:15.409Z,98131.47
2023-05-07T15:06:18.223Z,98141.69
2023-05-07T15:09:21.077Z,98136.09
2023-05-07T15:12:25.133Z,98141.81
2023-05-07T15:15:27.845Z,98137.69
2023-05-07T15:18:30.614Z,98135.78
2023-05-07T15:21:35.539Z,98150.75
2023-05-07T15:24:38.521Z,98151.09
2023-05-07T15:27:42.665Z,98144.53
2023-05-07T15:30:45.464Z,98142.94
2023-05-07T15:33:48.529Z,98143.59
2023-05-07T15:36:51.191Z,98151.06
2023-05-07T15:39:53.879Z,98154.72
2023-05-07T15:42:58.328Z,98147.88
2023-05-07T15:46:01.824Z,98161.13
2023-05-07T15:49:05.449Z,98153.78
2023-05-07T15:52:08.290Z,98153.13
2023-05-07T15:55:11.571Z,98150.69
2023-05-07T15:58:15.904Z,98162.69
2023-05-07T16:01:18.771Z,98164.94
2023-05-07T16:04:21.607Z,98165.75
2023-05-07T16:07:24.684Z,98171.50
2023-05-07T16:10:27.789Z,98184.59
2023-05-07T16:13:31.808Z,98200.84
2023-05-07T16:16:34.738Z,98213.31
2023-05-07T16:19:37.490Z,98219.84
2023-05-07T16:22:40.259Z,98218.41
2023-05-07T16:25:43.117Z,98222.56
2023-05-07T16:28:47.294Z,98232.16
2023-05-07T16:31:50.685Z,98236.91
2023-05-07T16:34:53.427Z,98233.28
2023-05-07T16:37:56.319Z,98231.34
2023-05-07T16:40:58.973Z,98228.31
2023-05-07T16:44:03.940Z,98231.50
2023-05-07T16:47:06.656Z,98228.78
2023-05-07T16:50:10.304Z,98222.41
2023-05-07T16:53:13.074Z,98223.53
2023-05-07T16:56:17.132Z,98227.03
2023-05-07T16:59:21.256Z,98230.56
2023-05-07T17:02:24.052Z,98237.09
2023-05-07T17:05:27.441Z,98233.28
2023-05-07T17:08:30.277Z,98229.44
2023-05-07T17:11:34.093Z,98222.88
2023-05-07T17:14:38.365Z,98230.41
2023-05-07T17:17:41.841Z,98227.34
2023-05-07T17:20:44.556Z,98240.78
2023-05-07T17:23:47.223Z,98243.50
2023-05-07T17:26:50.175Z,98244.44
2023-05-07T17:29:55.568Z,98246.19
2023-05-07T17:33:06.174Z,98245.22
2023-05-07T17:36:12.246Z,98248.88
2023-05-07T17:39:14.983Z,98246.81
2023-05-07T17:42:17.752Z,98255.44
2023-05-07T17:45:22.039Z,98258.00
2023-05-07T17:48:25.225Z,98259.72
2023-05-07T17:51:36.106Z,98260.94
2023-05-07T17:54:41.881Z,98267.50
2023-05-07T17:57:44.627Z,98268.41
2023-05-07T18:00:49.067Z,98276.88
2023-05-07T18:03:52.083Z,98272.88
2023-05-07T18:06:55.051Z,98275.59
2023-05-07T18:09:59.646Z,98277.19
2023-05-07T18:13:02.487Z,98287.69
2023-05-07T18:16:07.496Z,98288.16
2023-05-07T18:19:10.419Z,98291.19
2023-05-07T18:22:13.115Z,98302.81
2023-05-07T18:25:15.805Z,98305.03
2023-05-07T18:28:18.598Z,98314.13
2023-05-07T18:31:22.747Z,98315.84
2023-05-07T18:34:25.540Z,98318.06
2023-05-07T18:37:28.220Z,98319.44
2023-05-07T18:40:31.028Z,98333.44
2023-05-07T18:43:34.502Z,98322.72
2023-05-07T18:46:38.659Z,98325.09
2023-05-07T18:49:41.372Z,98329.19
2023-05-07T18:52:44.165Z,98328.84
2023-05-07T18:55:50.789Z,98331.25
2023-05-07T18:58:53.446Z,98330.16
2023-05-07T19:01:57.553Z,98338.38
2023-05-07T19:05:00.269Z,98340.59
2023-05-07T19:08:02.928Z,98342.53
2023-05-07T19:11:05.654Z,98332.59
2023-05-07T19:14:09.686Z,98338.16
2023-05-07T19:17:15.976Z,98342.59
2023-05-07T19:20:18.820Z,98355.91
2023-05-07T19:23:21.575Z,98364.13
2023-05-07T19:26:24.441Z,98362.84
2023-05-07T19:29:27.234Z,98370.97
2023-05-07T19:32:31.251Z,98371.09
2023-05-07T19:35:35.242Z,98380.28
2023-05-07T19:38:37.971Z,98381.41
2023-05-07T19:41:41.920Z,98389.34
2023-05-07T19:44:44.689Z,98391.25
2023-05-07T19:47:49.946Z,98395.84
2023-05-07T19:50:52.816Z,98396.16
2023-05-07T19:53:55.562Z,98402.97
2023-05-07T19:56:58.374Z,98403.47
2023-05-07T20:00:01.061Z,98407.81
2023-05-07T20:03:05.612Z,98408.13
2023-05-07T20:06:08.383Z,98408.72
2023-05-07T20:09:12.895Z,98419.53
2023-05-07T20:12:15.765Z,98420.34
2023-05-07T20:15:19.631Z,98417.94
2023-05-07T20:18:23.846Z,98422.84
2023-05-07T20:21:26.877Z,98413.13
2023-05-07T20:24:29.803Z,98409.63
2023-05-07T20:27:34.568Z,98422.03
2023-05-07T20:30:37.350Z,98419.66
2023-05-07T20:33:41.391Z,98425.25
2023-05-07T20:36:45.291Z,98425.56
2023-05-07T20:39:49.138Z,98426.66
2023-05-07T20:42:52.749Z,98435.69
2023-05-07T20:46:00.559Z,98436.78
2023-05-07T20:49:04.917Z,98440.31
2023-05-07T20:52:07.592Z,98439.81
2023-05-07T20:55:10.990Z,98443.50
2023-05-07T20:58:13.782Z,98447.22
2023-05-07T21:01:16.610Z,98446.59
2023-05-07T21:04:21.402Z,98437.38
2023-05-07T21:07:24.237Z,98435.97
2023-05-07T21:10:27.101Z,98449.00
2023-05-07T21:13:29.848Z,98451.94
2023-05-07T21:16:32.630Z,98446.91
2023-05-07T21:19:36.730Z,98449.13
2023-05-07T21:22:39.412Z,98445.03
2023-05-07T21:25:42.434Z,98448.03
2023-05-07T21:28:45.118Z,98449.44
2023-05-07T21:31:47.981Z,98452.13
2023-05-07T21:34:52.321Z,98449.13
2023-05-07T21:37:55.123Z,98449.63
2023-05-07T21:40:57.976Z,98443.41
2023-05-07T21:44:00.777Z,98445.34
2023-05-07T21:47:03.476Z,98456.75
2023-05-07T21:50:08.509Z,98452.13
2023-05-07T21:53:11.437Z,98455.66
2023-05-07T21:56:14.153Z,98456.94
2023-05-07T21:59:16.942Z,98456.16
2023-05-07T22:02:19.684Z,98455.66
2023-05-07T22:05:23.960Z,98454.84
2023-05-07T22:08:26.670Z,98453.53
2023-05-07T22:11:29.324Z,98450.81
2023-05-07T22:14:32.161Z,98454.84
2023-05-07T22:17:34.966Z,98454.03
2023-05-07T22:20:39.088Z,98448.63
2023-05-07T22:23:41.894Z,98445.41
2023-05-07T22:26:45.109Z,98444.59
2023-05-07T22:29:47.783Z,98444.34
2023-05-07T22:32:50.481Z,98443.72
2023-05-07T22:35:54.581Z,98449.31
2023-05-07T22:38:57.235Z,98447.72
2023-05-07T22:41:59.906Z,98453.91
2023-05-07T22:45:02.735Z,98449.63
2023-05-07T22:48:06.335Z,98453.63
2023-05-07T22:51:15.023Z,98457.94
2023-05-07T22:54:17.771Z,98449.31
2023-05-07T22:57:20.478Z,98458.75
2023-05-07T23:00:23.832Z,98451.72
2023-05-07T23:03:26.833Z,98453.44
2023-05-07T23:06:30.963Z,98459.13
2023-05-07T23:09:33.967Z,98452.94
2023-05-07T23:12:36.908Z,98448.94
2023-05-07T23:15:39.890Z,98454.03
2023-05-07T23:18:42.536Z,98440.00
2023-05-07T23:21:46.586Z,98447.53
2023-05-07T23:24:49.261Z,98448.50
2023-05-07T23:27:51.956Z,98443.09
2023-05-07T23:30:54.695Z,98444.34
2023-05-07T23:33:57.536Z,98439.81
2023-05-07T23:37:01.657Z,98439.31
2023-05-07T23:40:05.062Z,98441.13
2023-05-07T23:43:07.753Z,98440.81
2023-05-07T23:46:10.473Z,98442.13
2023-05-07T23:49:13.339Z,98440.13
2023-05-07T23:52:17.560Z,98436.81
2023-05-07T23:55:20.295Z,98440.81
2023-05-07T23:58:23.162Z,98434.19
